Station Historical Data
Daily Summary for July 15, 2012 Units:  Both    English   Metric
« Previous Day
Next Day »
Daily Weekly Monthly Yearly Custom
  High: Low: Average:
Temperature: 90.0 °F /  32.2 °C 70.2 °F /  21.2 °C 79 °F /  26.1 °C
Dew Point: 75.8 °F /  24.3 °C 67.8 °F /  19.9 °C 70.9 °F /  21.6 °C
Humidity: 92% 52% 78%
Wind Speed: 11.0mph /  17.7km/h - 3mph /  4.8km/h
Wind Gust: 14.0mph /  22.5km/h - -
Wind- - SSE
Pressure: 30.13 in /  1020.2 hPa 29.99 in /  1015.5 hPa -
Precipitation: 0.00 in /  0 mm    
Historical Graphs
 
 
Tabular Data for July 15, 2012
Time Temperature Dew Point Pressure Wind Wind Speed Wind Gust Humidity Rainfall Rate (Hourly) Conditions
00:00 70.7 °F /  21.5 °C 68.3 °F /  20.2 °C 30.05in /  1017.5hPa ESE 2.0mph /  3.2km/h 5.0mph /  8km/h 92% 0.00in /  0mm
00:01 70.7 °F /  21.5 °C 68.3 °F /  20.2 °C 30.04in /  1017.2hPa SE 2.0mph /  3.2km/h 5.0mph /  8km/h 92% 0.00in /  0mm
00:06 70.6 °F /  21.4 °C 68.2 °F /  20.1 °C 30.04in /  1017.2hPa SE 3.0mph /  4.8km/h 5.0mph /  8km/h 92% 0.00in /  0mm
00:11 70.6 °F /  21.4 °C 68.2 °F /  20.1 °C 30.04in /  1017.2hPa ESE 4.0mph /  6.4km/h 4.0mph /  6.4km/h 92% 0.00in /  0mm
00:16 70.5 °F /  21.4 °C 68.1 °F /  20.1 °C 30.04in /  1017.2hPa ESE 4.0mph /  6.4km/h 5.0mph /  8km/h 92% 0.00in /  0mm
00:21 70.5 °F /  21.4 °C 68.1 °F /  20.1 °C 30.04in /  1017.2hPa SE 4.0mph /  6.4km/h 4.0mph /  6.4km/h 92% 0.00in /  0mm
00:26 70.5 °F /  21.4 °C 68.1 °F /  20.1 °C 30.04in /  1017.2hPa SE 4.0mph /  6.4km/h 4.0mph /  6.4km/h 92% 0.00in /  0mm
00:31 70.5 °F /  21.4 °C 68.1 °F /  20.1 °C 30.04in /  1017.2hPa SE 2.0mph /  3.2km/h 4.0mph /  6.4km/h 92% 0.00in /  0mm
00:36 70.5 °F /  21.4 °C 68.1 °F /  20.1 °C 30.03in /  1016.8hPa ESE 4.0mph /  6.4km/h 4.0mph /  6.4km/h 92% 0.00in /  0mm
00:41 70.5 °F /  21.4 °C 68.1 °F /  20.1 °C 30.03in /  1016.8hPa ESE 3.0mph /  4.8km/h 4.0mph /  6.4km/h 92% 0.00in /  0mm
00:46 70.5 °F /  21.4 °C 68.1 °F /  20.1 °C 30.03in /  1016.8hPa SE 4.0mph /  6.4km/h 4.0mph /  6.4km/h 92% 0.00in /  0mm
00:51 70.5 °F /  21.4 °C 68.1 °F /  20.1 °C 30.03in /  1016.8hPa SE 2.0mph /  3.2km/h 4.0mph /  6.4km/h 92% 0.00in /  0mm
00:56 70.5 °F /  21.4 °C 68.1 °F /  20.1 °C 30.03in /  1016.8hPa SE 3.0mph /  4.8km/h 4.0mph /  6.4km/h 92% 0.00in /  0mm
01:01 70.5 °F /  21.4 °C 68.1 °F /  20.1 °C 30.03in /  1016.8hPa SE 4.0mph /  6.4km/h 4.0mph /  6.4km/h 92% 0.00in /  0mm
01:06 70.6 °F /  21.4 °C 68.2 °F /  20.1 °C 30.03in /  1016.8hPa SE 4.0mph /  6.4km/h 5.0mph /  8km/h 92% 0.00in /  0mm
01:11 70.6 °F /  21.4 °C 68.2 °F /  20.1 °C 30.03in /  1016.8hPa SE 4.0mph /  6.4km/h 5.0mph /  8km/h 92% 0.00in /  0mm
01:16 70.6 °F /  21.4 °C 68.2 °F /  20.1 °C 30.03in /  1016.8hPa ESE 4.0mph /  6.4km/h 5.0mph /  8km/h 92% 0.00in /  0mm
01:21 70.6 °F /  21.4 °C 68.2 °F /  20.1 °C 30.03in /  1016.8hPa SE 3.0mph /  4.8km/h 5.0mph /  8km/h 92% 0.00in /  0mm
01:26 70.6 °F /  21.4 °C 68.2 °F /  20.1 °C 30.03in /  1016.8hPa ESE 4.0mph /  6.4km/h 5.0mph /  8km/h 92% 0.00in /  0mm
01:31 70.6 °F /  21.4 °C 68.2 °F /  20.1 °C 30.03in /  1016.8hPa ESE 4.0mph /  6.4km/h 5.0mph /  8km/h 92% 0.00in /  0mm
01:36 70.6 °F /  21.4 °C 68.2 °F /  20.1 °C 30.03in /  1016.8hPa SE 4.0mph /  6.4km/h 5.0mph /  8km/h 92% 0.00in /  0mm
01:41 70.7 °F /  21.5 °C 68.3 °F /  20.2 °C 30.03in /  1016.8hPa SE 3.0mph /  4.8km/h 6.0mph /  9.7km/h 92% 0.00in /  0mm
01:46 70.7 °F /  21.5 °C 68.3 °F /  20.2 °C 30.03in /  1016.8hPa SE 3.0mph /  4.8km/h 4.0mph /  6.4km/h 92% 0.00in /  0mm
01:51 70.7 °F /  21.5 °C 68.3 °F /  20.2 °C 30.03in /  1016.8hPa SE 3.0mph /  4.8km/h 5.0mph /  8km/h 92% 0.00in /  0mm
01:56 70.7 °F /  21.5 °C 68.3 °F /  20.2 °C 30.03in /  1016.8hPa SE 3.0mph /  4.8km/h 4.0mph /  6.4km/h 92% 0.00in /  0mm
02:01 70.7 °F /  21.5 °C 68.3 °F /  20.2 °C 30.03in /  1016.8hPa SE 3.0mph /  4.8km/h 5.0mph /  8km/h 92% 0.00in /  0mm
02:06 70.7 °F /  21.5 °C 68.3 °F /  20.2 °C 30.03in /  1016.8hPa ESE 3.0mph /  4.8km/h 4.0mph /  6.4km/h 92% 0.00in /  0mm
02:11 70.7 °F /  21.5 °C 68.3 °F /  20.2 °C 30.03in /  1016.8hPa ESE 3.0mph /  4.8km/h 3.0mph /  4.8km/h 92% 0.00in /  0mm
02:16 70.7 °F /  21.5 °C 68.3 °F /  20.2 °C 30.03in /  1016.8hPa ESE 2.0mph /  3.2km/h 4.0mph /  6.4km/h 92% 0.00in /  0mm
02:21 70.7 °F /  21.5 °C 68.3 °F /  20.2 °C 30.03in /  1016.8hPa SE 2.0mph /  3.2km/h 4.0mph /  6.4km/h 92% 0.00in /  0mm
02:26 70.7 °F /  21.5 °C 68.3 °F /  20.2 °C 30.03in /  1016.8hPa ESE 4.0mph /  6.4km/h 5.0mph /  8km/h 92% 0.00in /  0mm
02:31 70.7 °F /  21.5 °C 68.3 °F /  20.2 °C 30.03in /  1016.8hPa ESE 2.0mph /  3.2km/h 3.0mph /  4.8km/h 92% 0.00in /  0mm
02:36 70.6 °F /  21.4 °C 68.2 °F /  20.1 °C 30.03in /  1016.8hPa ESE 4.0mph /  6.4km/h 4.0mph /  6.4km/h 92% 0.00in /  0mm
02:41 70.6 °F /  21.4 °C 68.2 °F /  20.1 °C 30.02in /  1016.5hPa SE 3.0mph /  4.8km/h 4.0mph /  6.4km/h 92% 0.00in /  0mm
02:47 70.6 °F /  21.4 °C 68.2 °F /  20.1 °C 30.02in /  1016.5hPa ESE 4.0mph /  6.4km/h 5.0mph /  8km/h 92% 0.00in /  0mm
02:52 70.6 °F /  21.4 °C 68.2 °F /  20.1 °C 30.02in /  1016.5hPa SE 4.0mph /  6.4km/h 5.0mph /  8km/h 92% 0.00in /  0mm
02:56 70.6 °F /  21.4 °C 68.2 °F /  20.1 °C 30.02in /  1016.5hPa SE 4.0mph /  6.4km/h 6.0mph /  9.7km/h 92% 0.00in /  0mm
03:01 70.5 °F /  21.4 °C 68.1 °F /  20.1 °C 30.02in /  1016.5hPa SE 3.0mph /  4.8km/h 5.0mph /  8km/h 92% 0.00in /  0mm
03:07 70.5 °F /  21.4 °C 68.1 °F /  20.1 °C 30.02in /  1016.5hPa ESE 2.0mph /  3.2km/h 5.0mph /  8km/h 92% 0.00in /  0mm
03:11 70.4 °F /  21.3 °C 68.0 °F /  20 °C 30.02in /  1016.5hPa ESE 4.0mph /  6.4km/h 4.0mph /  6.4km/h 92% 0.00in /  0mm
03:17 70.4 °F /  21.3 °C 68.0 °F /  20 °C 30.02in /  1016.5hPa ESE 3.0mph /  4.8km/h 6.0mph /  9.7km/h 92% 0.00in /  0mm
03:22 70.3 °F /  21.3 °C 67.9 °F /  19.9 °C 30.02in /  1016.5hPa ESE 4.0mph /  6.4km/h 5.0mph /  8km/h 92% 0.00in /  0mm
03:27 70.3 °F /  21.3 °C 67.9 °F /  19.9 °C 30.02in /  1016.5hPa SE 3.0mph /  4.8km/h 4.0mph /  6.4km/h 92% 0.00in /  0mm
03:32 70.3 °F /  21.3 °C 67.9 °F /  19.9 °C 30.02in /  1016.5hPa SE 3.0mph /  4.8km/h 4.0mph /  6.4km/h 92% 0.00in /  0mm
03:37 70.3 °F /  21.3 °C 67.9 °F /  19.9 °C 30.02in /  1016.5hPa SE 5.0mph /  8km/h 5.0mph /  8km/h 92% 0.00in /  0mm
03:42 70.3 °F /  21.3 °C 67.9 °F /  19.9 °C 30.02in /  1016.5hPa SE 2.0mph /  3.2km/h 5.0mph /  8km/h 92% 0.00in /  0mm
03:47 70.4 °F /  21.3 °C 68.0 °F /  20 °C 30.02in /  1016.5hPa SE 3.0mph /  4.8km/h 4.0mph /  6.4km/h 92% 0.00in /  0mm
03:52 70.5 °F /  21.4 °C 68.1 °F /  20.1 °C 30.02in /  1016.5hPa SE 4.0mph /  6.4km/h 5.0mph /  8km/h 92% 0.00in /  0mm
03:57 70.5 °F /  21.4 °C 68.1 °F /  20.1 °C 30.02in /  1016.5hPa SE 4.0mph /  6.4km/h 4.0mph /  6.4km/h 92% 0.00in /  0mm
04:02 70.6 °F /  21.4 °C 68.2 °F /  20.1 °C 30.02in /  1016.5hPa ESE 2.0mph /  3.2km/h 4.0mph /  6.4km/h 92% 0.00in /  0mm
04:07 70.6 °F /  21.4 °C 68.2 °F /  20.1 °C 30.02in /  1016.5hPa ESE 2.0mph /  3.2km/h 4.0mph /  6.4km/h 92% 0.00in /  0mm
04:12 70.6 °F /  21.4 °C 68.2 °F /  20.1 °C 30.02in /  1016.5hPa SE 2.0mph /  3.2km/h 3.0mph /  4.8km/h 92% 0.00in /  0mm
04:17 70.6 °F /  21.4 °C 68.2 °F /  20.1 °C 30.02in /  1016.5hPa ESE 3.0mph /  4.8km/h 3.0mph /  4.8km/h 92% 0.00in /  0mm
04:22 70.6 °F /  21.4 °C 68.2 °F /  20.1 °C 30.02in /  1016.5hPa SE 1.0mph /  1.6km/h 3.0mph /  4.8km/h 92% 0.00in /  0mm
04:27 70.6 °F /  21.4 °C 68.2 °F /  20.1 °C 30.02in /  1016.5hPa ESE 2.0mph /  3.2km/h 2.0mph /  3.2km/h 92% 0.00in /  0mm
04:32 70.5 °F /  21.4 °C 68.1 °F /  20.1 °C 30.03in /  1016.8hPa ESE 1.0mph /  1.6km/h 2.0mph /  3.2km/h 92% 0.00in /  0mm
04:37 70.5 °F /  21.4 °C 68.1 °F /  20.1 °C 30.03in /  1016.8hPa SE 1.0mph /  1.6km/h 2.0mph /  3.2km/h 92% 0.00in /  0mm
04:42 70.5 °F /  21.4 °C 68.1 °F /  20.1 °C 30.03in /  1016.8hPa SE 1.0mph /  1.6km/h 1.0mph /  1.6km/h 92% 0.00in /  0mm
04:47 70.5 °F /  21.4 °C 68.1 °F /  20.1 °C 30.03in /  1016.8hPa Calm   1.0mph /  1.6km/h 92% 0.00in /  0mm
04:52 70.4 °F /  21.3 °C 68.0 °F /  20 °C 30.03in /  1016.8hPa Calm     92% 0.00in /  0mm
04:57 70.4 °F /  21.3 °C 68.0 °F /  20 °C 30.03in /  1016.8hPa Calm     92% 0.00in /  0mm
05:02 70.3 °F /  21.3 °C 67.9 °F /  19.9 °C 30.04in /  1017.2hPa Calm     92% 0.00in /  0mm
05:07 70.2 °F /  21.2 °C 67.8 °F /  19.9 °C 30.04in /  1017.2hPa Calm   1.0mph /  1.6km/h 92% 0.00in /  0mm
05:12 70.2 °F /  21.2 °C 67.8 °F /  19.9 °C 30.04in /  1017.2hPa Calm     92% 0.00in /  0mm
05:17 70.2 °F /  21.2 °C 67.8 °F /  19.9 °C 30.04in /  1017.2hPa Calm     92% 0.00in /  0mm
05:22 70.2 °F /  21.2 °C 67.8 °F /  19.9 °C 30.04in /  1017.2hPa Calm     92% 0.00in /  0mm
05:27 70.2 °F /  21.2 °C 67.8 °F /  19.9 °C 30.03in /  1016.8hPa East 1.0mph /  1.6km/h 1.0mph /  1.6km/h 92% 0.00in /  0mm
05:32 70.3 °F /  21.3 °C 67.9 °F /  19.9 °C 30.04in /  1017.2hPa East 1.0mph /  1.6km/h 1.0mph /  1.6km/h 92% 0.00in /  0mm
05:37 70.3 °F /  21.3 °C 67.9 °F /  19.9 °C 30.04in /  1017.2hPa ESE 1.0mph /  1.6km/h 3.0mph /  4.8km/h 92% 0.00in /  0mm
05:42 70.3 °F /  21.3 °C 67.9 °F /  19.9 °C 30.04in /  1017.2hPa ESE 1.0mph /  1.6km/h 2.0mph /  3.2km/h 92% 0.00in /  0mm
05:47 70.4 °F /  21.3 °C 68.0 °F /  20 °C 30.05in /  1017.5hPa Calm   1.0mph /  1.6km/h 92% 0.00in /  0mm
05:52 70.4 °F /  21.3 °C 68.0 °F /  20 °C 30.05in /  1017.5hPa Calm   1.0mph /  1.6km/h 92% 0.00in /  0mm
05:57 70.4 °F /  21.3 °C 68.0 °F /  20 °C 30.05in /  1017.5hPa ESE 2.0mph /  3.2km/h 2.0mph /  3.2km/h 92% 0.00in /  0mm
06:02 70.5 °F /  21.4 °C 68.1 °F /  20.1 °C 30.05in /  1017.5hPa Calm   1.0mph /  1.6km/h 92% 0.00in /  0mm
06:07 70.5 °F /  21.4 °C 68.1 °F /  20.1 °C 30.05in /  1017.5hPa Calm   2.0mph /  3.2km/h 92% 0.00in /  0mm
06:13 70.5 °F /  21.4 °C 68.1 °F /  20.1 °C 30.05in /  1017.5hPa Calm     92% 0.00in /  0mm
06:18 70.5 °F /  21.4 °C 68.1 °F /  20.1 °C 30.05in /  1017.5hPa Calm     92% 0.00in /  0mm
06:23 70.5 °F /  21.4 °C 68.1 °F /  20.1 °C 30.06in /  1017.8hPa Calm   1.0mph /  1.6km/h 92% 0.00in /  0mm
06:28 70.5 °F /  21.4 °C 68.1 °F /  20.1 °C 30.06in /  1017.8hPa Calm   2.0mph /  3.2km/h 92% 0.00in /  0mm
06:32 70.5 °F /  21.4 °C 68.1 °F /  20.1 °C 30.06in /  1017.8hPa Calm   1.0mph /  1.6km/h 92% 0.00in /  0mm
06:38 70.4 °F /  21.3 °C 68.0 °F /  20 °C 30.07in /  1018.2hPa Calm   1.0mph /  1.6km/h 92% 0.00in /  0mm
06:43 70.5 °F /  21.4 °C 68.1 °F /  20.1 °C 30.07in /  1018.2hPa ESE 1.0mph /  1.6km/h 1.0mph /  1.6km/h 92% 0.00in /  0mm
06:48 70.4 °F /  21.3 °C 68.0 °F /  20 °C 30.07in /  1018.2hPa Calm   1.0mph /  1.6km/h 92% 0.00in /  0mm
06:53 70.4 °F /  21.3 °C 68.0 °F /  20 °C 30.07in /  1018.2hPa Calm   2.0mph /  3.2km/h 92% 0.00in /  0mm
06:58 70.4 °F /  21.3 °C 68.0 °F /  20 °C 30.08in /  1018.5hPa East 1.0mph /  1.6km/h 1.0mph /  1.6km/h 92% 0.00in /  0mm
07:03 70.5 °F /  21.4 °C 68.1 °F /  20.1 °C 30.08in /  1018.5hPa Calm   1.0mph /  1.6km/h 92% 0.00in /  0mm
07:08 70.5 °F /  21.4 °C 68.1 °F /  20.1 °C 30.08in /  1018.5hPa Calm   2.0mph /  3.2km/h 92% 0.00in /  0mm
07:13 70.6 °F /  21.4 °C 68.2 °F /  20.1 °C 30.08in /  1018.5hPa East 1.0mph /  1.6km/h 2.0mph /  3.2km/h 92% 0.00in /  0mm
07:18 70.6 °F /  21.4 °C 68.2 °F /  20.1 °C 30.08in /  1018.5hPa East 1.0mph /  1.6km/h 2.0mph /  3.2km/h 92% 0.00in /  0mm
07:23 70.7 °F /  21.5 °C 68.3 °F /  20.2 °C 30.09in /  1018.8hPa ESE 2.0mph /  3.2km/h 2.0mph /  3.2km/h 92% 0.00in /  0mm
07:28 70.8 °F /  21.6 °C 68.4 °F /  20.2 °C 30.09in /  1018.8hPa ESE 3.0mph /  4.8km/h 3.0mph /  4.8km/h 92% 0.00in /  0mm
07:33 70.9 °F /  21.6 °C 68.5 °F /  20.3 °C 30.09in /  1018.8hPa ESE 3.0mph /  4.8km/h 3.0mph /  4.8km/h 92% 0.00in /  0mm
07:38 71.0 °F /  21.7 °C 68.6 °F /  20.3 °C 30.09in /  1018.8hPa ESE 4.0mph /  6.4km/h 5.0mph /  8km/h 92% 0.00in /  0mm
07:43 71.2 °F /  21.8 °C 68.8 °F /  20.4 °C 30.09in /  1018.8hPa ESE 4.0mph /  6.4km/h 5.0mph /  8km/h 92% 0.00in /  0mm
07:48 71.5 °F /  21.9 °C 69.1 °F /  20.6 °C 30.09in /  1018.8hPa East 3.0mph /  4.8km/h 5.0mph /  8km/h 92% 0.00in /  0mm
07:53 71.6 °F /  22 °C 69.2 °F /  20.7 °C 30.09in /  1018.8hPa ESE 2.0mph /  3.2km/h 4.0mph /  6.4km/h 92% 0.00in /  0mm
07:58 71.9 °F /  22.2 °C 69.4 °F /  20.8 °C 30.10in /  1019.2hPa SE 1.0mph /  1.6km/h 4.0mph /  6.4km/h 92% 0.00in /  0mm
08:03 72.3 °F /  22.4 °C 69.8 °F /  21 °C 30.10in /  1019.2hPa ESE 4.0mph /  6.4km/h 5.0mph /  8km/h 92% 0.00in /  0mm
08:08 72.6 °F /  22.6 °C 70.2 °F /  21.2 °C 30.10in /  1019.2hPa ESE 3.0mph /  4.8km/h 3.0mph /  4.8km/h 92% 0.00in /  0mm
08:13 73.1 °F /  22.8 °C 70.6 °F /  21.4 °C 30.10in /  1019.2hPa East 4.0mph /  6.4km/h 4.0mph /  6.4km/h 92% 0.00in /  0mm
08:18 73.4 °F /  23 °C 70.9 °F /  21.6 °C 30.10in /  1019.2hPa ESE 3.0mph /  4.8km/h 4.0mph /  6.4km/h 92% 0.00in /  0mm
08:23 73.5 °F /  23.1 °C 71.0 °F /  21.7 °C 30.10in /  1019.2hPa East 2.0mph /  3.2km/h 3.0mph /  4.8km/h 92% 0.00in /  0mm
08:28 73.5 °F /  23.1 °C 71.0 °F /  21.7 °C 30.10in /  1019.2hPa ESE 2.0mph /  3.2km/h 4.0mph /  6.4km/h 92% 0.00in /  0mm
08:33 73.5 °F /  23.1 °C 71.0 °F /  21.7 °C 30.11in /  1019.5hPa ESE 5.0mph /  8km/h 5.0mph /  8km/h 92% 0.00in /  0mm
08:38 73.6 °F /  23.1 °C 71.1 °F /  21.7 °C 30.10in /  1019.2hPa SE 2.0mph /  3.2km/h 3.0mph /  4.8km/h 92% 0.00in /  0mm
08:43 73.8 °F /  23.2 °C 71.3 °F /  21.8 °C 30.11in /  1019.5hPa ESE 1.0mph /  1.6km/h 3.0mph /  4.8km/h 92% 0.00in /  0mm
08:48 73.9 °F /  23.3 °C 71.4 °F /  21.9 °C 30.11in /  1019.5hPa ESE 3.0mph /  4.8km/h 4.0mph /  6.4km/h 92% 0.00in /  0mm
08:53 74.0 °F /  23.3 °C 71.5 °F /  21.9 °C 30.11in /  1019.5hPa ESE 3.0mph /  4.8km/h 3.0mph /  4.8km/h 92% 0.00in /  0mm
08:58 74.3 °F /  23.5 °C 71.8 °F /  22.1 °C 30.11in /  1019.5hPa ESE 4.0mph /  6.4km/h 4.0mph /  6.4km/h 92% 0.00in /  0mm
09:03 74.9 °F /  23.8 °C 72.4 °F /  22.4 °C 30.11in /  1019.5hPa ESE 2.0mph /  3.2km/h 3.0mph /  4.8km/h 92% 0.00in /  0mm
09:08 75.0 °F /  23.9 °C 72.5 °F /  22.5 °C 30.12in /  1019.9hPa SE 4.0mph /  6.4km/h 4.0mph /  6.4km/h 92% 0.00in /  0mm
09:13 75.0 °F /  23.9 °C 72.2 °F /  22.3 °C 30.12in /  1019.9hPa SE 2.0mph /  3.2km/h 4.0mph /  6.4km/h 91% 0.00in /  0mm
09:18 75.2 °F /  24 °C 72.4 °F /  22.4 °C 30.12in /  1019.9hPa ESE 3.0mph /  4.8km/h 4.0mph /  6.4km/h 91% 0.00in /  0mm
09:23 75.5 °F /  24.2 °C 72.7 °F /  22.6 °C 30.12in /  1019.9hPa ESE 6.0mph /  9.7km/h 6.0mph /  9.7km/h 91% 0.00in /  0mm
09:28 76.1 °F /  24.5 °C 73.3 °F /  22.9 °C 30.11in /  1019.5hPa SE 3.0mph /  4.8km/h 6.0mph /  9.7km/h 91% 0.00in /  0mm
09:33 76.6 °F /  24.8 °C 73.8 °F /  23.2 °C 30.12in /  1019.9hPa SE 3.0mph /  4.8km/h 6.0mph /  9.7km/h 91% 0.00in /  0mm
09:38 77.0 °F /  25 °C 73.8 °F /  23.2 °C 30.12in /  1019.9hPa SE 4.0mph /  6.4km/h 7.0mph /  11.3km/h 90% 0.00in /  0mm
09:43 77.3 °F /  25.2 °C 74.1 °F /  23.4 °C 30.12in /  1019.9hPa SE 3.0mph /  4.8km/h 5.0mph /  8km/h 90% 0.00in /  0mm
09:48 77.6 °F /  25.3 °C 74.4 °F /  23.6 °C 30.12in /  1019.9hPa SE 4.0mph /  6.4km/h 5.0mph /  8km/h 90% 0.00in /  0mm
09:54 77.9 °F /  25.5 °C 74.4 °F /  23.6 °C 30.12in /  1019.9hPa East 5.0mph /  8km/h 6.0mph /  9.7km/h 89% 0.00in /  0mm
09:59 78.2 °F /  25.7 °C 74.7 °F /  23.7 °C 30.12in /  1019.9hPa ESE 3.0mph /  4.8km/h 6.0mph /  9.7km/h 89% 0.00in /  0mm
10:04 78.0 °F /  25.6 °C 74.2 °F /  23.4 °C 30.12in /  1019.9hPa SE 6.0mph /  9.7km/h 6.0mph /  9.7km/h 88% 0.00in /  0mm
10:09 77.8 °F /  25.4 °C 74.0 °F /  23.3 °C 30.13in /  1020.2hPa SE 4.0mph /  6.4km/h 6.0mph /  9.7km/h 88% 0.00in /  0mm
10:14 77.9 °F /  25.5 °C 74.4 °F /  23.6 °C 30.13in /  1020.2hPa SE 4.0mph /  6.4km/h 6.0mph /  9.7km/h 89% 0.00in /  0mm
10:19 78.3 °F /  25.7 °C 74.8 °F /  23.8 °C 30.13in /  1020.2hPa SE 6.0mph /  9.7km/h 6.0mph /  9.7km/h 89% 0.00in /  0mm
10:24 78.8 °F /  26 °C 74.9 °F /  23.8 °C 30.12in /  1019.9hPa SSE 5.0mph /  8km/h 7.0mph /  11.3km/h 88% 0.00in /  0mm
10:29 79.2 °F /  26.2 °C 75.0 °F /  23.9 °C 30.12in /  1019.9hPa SE 5.0mph /  8km/h 7.0mph /  11.3km/h 87% 0.00in /  0mm
10:34 79.1 °F /  26.2 °C 74.9 °F /  23.8 °C 30.12in /  1019.9hPa SE 4.0mph /  6.4km/h 6.0mph /  9.7km/h 87% 0.00in /  0mm
10:39 79.3 °F /  26.3 °C 75.1 °F /  23.9 °C 30.12in /  1019.9hPa SE 4.0mph /  6.4km/h 6.0mph /  9.7km/h 87% 0.00in /  0mm
10:44 79.2 °F /  26.2 °C 74.7 °F /  23.7 °C 30.12in /  1019.9hPa South 3.0mph /  4.8km/h 7.0mph /  11.3km/h 86% 0.00in /  0mm
10:49 79.4 °F /  26.3 °C 75.5 °F /  24.2 °C 30.12in /  1019.9hPa SE 5.0mph /  8km/h 5.0mph /  8km/h 88% 0.00in /  0mm
10:54 79.6 °F /  26.4 °C 75.1 °F /  23.9 °C 30.12in /  1019.9hPa SE 3.0mph /  4.8km/h 6.0mph /  9.7km/h 86% 0.00in /  0mm
10:59 79.9 °F /  26.6 °C 74.6 °F /  23.7 °C 30.12in /  1019.9hPa SSE 5.0mph /  8km/h 6.0mph /  9.7km/h 84% 0.00in /  0mm
11:04 80.5 °F /  26.9 °C 74.5 °F /  23.6 °C 30.12in /  1019.9hPa SSE 2.0mph /  3.2km/h 5.0mph /  8km/h 82% 0.00in /  0mm
11:09 81.3 °F /  27.4 °C 74.9 °F /  23.8 °C 30.12in /  1019.9hPa SSW 5.0mph /  8km/h 8.0mph /  12.9km/h 81% 0.00in /  0mm
11:14 81.8 °F /  27.7 °C 75.8 °F /  24.3 °C 30.12in /  1019.9hPa WSW 4.0mph /  6.4km/h 5.0mph /  8km/h 82% 0.00in /  0mm
11:19 81.8 °F /  27.7 °C 74.7 °F /  23.7 °C 30.12in /  1019.9hPa SSW 4.0mph /  6.4km/h 6.0mph /  9.7km/h 79% 0.00in /  0mm
11:24 81.7 °F /  27.6 °C 74.9 °F /  23.8 °C 30.12in /  1019.9hPa South 8.0mph /  12.9km/h 8.0mph /  12.9km/h 80% 0.00in /  0mm
11:29 81.9 °F /  27.7 °C 74.4 °F /  23.6 °C 30.12in /  1019.9hPa SSE 5.0mph /  8km/h 10.0mph /  16.1km/h 78% 0.00in /  0mm
11:34 82.2 °F /  27.9 °C 74.7 °F /  23.7 °C 30.12in /  1019.9hPa SSW 7.0mph /  11.3km/h 8.0mph /  12.9km/h 78% 0.00in /  0mm
11:39 82.5 °F /  28.1 °C 74.2 °F /  23.4 °C 30.12in /  1019.9hPa SSE 5.0mph /  8km/h 8.0mph /  12.9km/h 76% 0.00in /  0mm
11:44 82.9 °F /  28.3 °C 74.9 °F /  23.8 °C 30.12in /  1019.9hPa SSE 5.0mph /  8km/h 9.0mph /  14.5km/h 77% 0.00in /  0mm
11:49 82.5 °F /  28.1 °C 74.9 °F /  23.8 °C 30.12in /  1019.9hPa SE 6.0mph /  9.7km/h 8.0mph /  12.9km/h 78% 0.00in /  0mm
11:54 82.2 °F /  27.9 °C 74.3 °F /  23.5 °C 30.12in /  1019.9hPa South 4.0mph /  6.4km/h 7.0mph /  11.3km/h 77% 0.00in /  0mm
11:59 82.7 °F /  28.2 °C 75.2 °F /  24 °C 30.12in /  1019.9hPa South 4.0mph /  6.4km/h 7.0mph /  11.3km/h 78% 0.00in /  0mm
12:04 83.1 °F /  28.4 °C 74.0 °F /  23.3 °C 30.12in /  1019.9hPa East 6.0mph /  9.7km/h 9.0mph /  14.5km/h 74% 0.00in /  0mm
12:09 83.0 °F /  28.3 °C 74.7 °F /  23.7 °C 30.12in /  1019.9hPa SE 7.0mph /  11.3km/h 9.0mph /  14.5km/h 76% 0.00in /  0mm
12:14 83.0 °F /  28.3 °C 74.7 °F /  23.7 °C 30.12in /  1019.9hPa SE 7.0mph /  11.3km/h 8.0mph /  12.9km/h 76% 0.00in /  0mm
12:19 83.2 °F /  28.4 °C 74.5 °F /  23.6 °C 30.12in /  1019.9hPa SE 4.0mph /  6.4km/h 11.0mph /  17.7km/h 75% 0.00in /  0mm
12:24 83.2 °F /  28.4 °C 73.7 °F /  23.2 °C 30.12in /  1019.9hPa SSE 2.0mph /  3.2km/h 6.0mph /  9.7km/h 73% 0.00in /  0mm
12:29 83.7 °F /  28.7 °C 74.5 °F /  23.6 °C 30.12in /  1019.9hPa SSE 3.0mph /  4.8km/h 9.0mph /  14.5km/h 74% 0.00in /  0mm
12:34 84.2 °F /  29 °C 74.2 °F /  23.4 °C 30.12in /  1019.9hPa SE 3.0mph /  4.8km/h 9.0mph /  14.5km/h 72% 0.00in /  0mm
12:39 84.5 °F /  29.2 °C 73.7 °F /  23.2 °C 30.11in /  1019.5hPa SW 8.0mph /  12.9km/h 8.0mph /  12.9km/h 70% 0.00in /  0mm
12:44 84.6 °F /  29.2 °C 74.6 °F /  23.7 °C 30.11in /  1019.5hPa SE 4.0mph /  6.4km/h 9.0mph /  14.5km/h 72% 0.00in /  0mm
12:49 85.1 °F /  29.5 °C 73.4 °F /  23 °C 30.12in /  1019.9hPa SE 9.0mph /  14.5km/h 13.0mph /  20.9km/h 68% 0.00in /  0mm
12:54 85.2 °F /  29.6 °C 73.9 °F /  23.3 °C 30.11in /  1019.5hPa SSW 7.0mph /  11.3km/h 9.0mph /  14.5km/h 69% 0.00in /  0mm
12:59 85.0 °F /  29.4 °C 72.8 °F /  22.7 °C 30.11in /  1019.5hPa SW 3.0mph /  4.8km/h 8.0mph /  12.9km/h 67% 0.00in /  0mm
13:04 85.0 °F /  29.4 °C 72.8 °F /  22.7 °C 30.11in /  1019.5hPa SW 7.0mph /  11.3km/h 8.0mph /  12.9km/h 67% 0.00in /  0mm
13:09 85.3 °F /  29.6 °C 72.7 °F /  22.6 °C 30.11in /  1019.5hPa South 3.0mph /  4.8km/h 7.0mph /  11.3km/h 66% 0.00in /  0mm
13:14 85.4 °F /  29.7 °C 74.1 °F /  23.4 °C 30.11in /  1019.5hPa SSW 4.0mph /  6.4km/h 7.0mph /  11.3km/h 69% 0.00in /  0mm
13:19 85.4 °F /  29.7 °C 72.8 °F /  22.7 °C 30.11in /  1019.5hPa SE 5.0mph /  8km/h 10.0mph /  16.1km/h 66% 0.00in /  0mm
13:25 85.5 °F /  29.7 °C 72.8 °F /  22.7 °C 30.10in /  1019.2hPa SE 7.0mph /  11.3km/h 10.0mph /  16.1km/h 66% 0.00in /  0mm
13:30 85.5 °F /  29.7 °C 73.7 °F /  23.2 °C 30.10in /  1019.2hPa SSW 6.0mph /  9.7km/h 8.0mph /  12.9km/h 68% 0.00in /  0mm
13:35 85.6 °F /  29.8 °C 73.8 °F /  23.2 °C 30.10in /  1019.2hPa South 5.0mph /  8km/h 9.0mph /  14.5km/h 68% 0.00in /  0mm
13:40 85.4 °F /  29.7 °C 73.2 °F /  22.9 °C 30.10in /  1019.2hPa SW 5.0mph /  8km/h 11.0mph /  17.7km/h 67% 0.00in /  0mm
13:45 85.7 °F /  29.8 °C 72.6 °F /  22.6 °C 30.10in /  1019.2hPa SSE 6.0mph /  9.7km/h 11.0mph /  17.7km/h 65% 0.00in /  0mm
13:50 85.9 °F /  29.9 °C 72.8 °F /  22.7 °C 30.10in /  1019.2hPa SE 5.0mph /  8km/h 9.0mph /  14.5km/h 65% 0.00in /  0mm
13:55 86.2 °F /  30.1 °C 72.1 °F /  22.3 °C 30.09in /  1018.8hPa SSW 8.0mph /  12.9km/h 9.0mph /  14.5km/h 63% 0.00in /  0mm
14:00 86.4 °F /  30.2 °C 73.2 °F /  22.9 °C 30.09in /  1018.8hPa South 5.0mph /  8km/h 9.0mph /  14.5km/h 65% 0.00in /  0mm
14:05 86.4 °F /  30.2 °C 71.8 °F /  22.1 °C 30.09in /  1018.8hPa SW 4.0mph /  6.4km/h 7.0mph /  11.3km/h 62% 0.00in /  0mm
14:10 86.4 °F /  30.2 °C 70.9 °F /  21.6 °C 30.09in /  1018.8hPa SE 8.0mph /  12.9km/h 11.0mph /  17.7km/h 60% 0.00in /  0mm
14:15 86.5 °F /  30.3 °C 72.4 °F /  22.4 °C 30.08in /  1018.5hPa SE 6.0mph /  9.7km/h 8.0mph /  12.9km/h 63% 0.00in /  0mm
14:20 86.2 °F /  30.1 °C 72.1 °F /  22.3 °C 30.09in /  1018.8hPa South 4.0mph /  6.4km/h 9.0mph /  14.5km/h 63% 0.00in /  0mm
14:25 86.5 °F /  30.3 °C 71.9 °F /  22.2 °C 30.08in /  1018.5hPa ESE 11.0mph /  17.7km/h 11.0mph /  17.7km/h 62% 0.00in /  0mm
14:30 86.5 °F /  30.3 °C 71.0 °F /  21.7 °C 30.08in /  1018.5hPa SE 6.0mph /  9.7km/h 11.0mph /  17.7km/h 60% 0.00in /  0mm
14:35 86.4 °F /  30.2 °C 71.8 °F /  22.1 °C 30.07in /  1018.2hPa SSE 7.0mph /  11.3km/h 8.0mph /  12.9km/h 62% 0.00in /  0mm
14:40 86.3 °F /  30.2 °C 72.7 °F /  22.6 °C 30.07in /  1018.2hPa SE 10.0mph /  16.1km/h 12.0mph /  19.3km/h 64% 0.00in /  0mm
14:45 86.1 °F /  30.1 °C 72.0 °F /  22.2 °C 30.07in /  1018.2hPa SE 4.0mph /  6.4km/h 11.0mph /  17.7km/h 63% 0.00in /  0mm
14:50 85.8 °F /  29.9 °C 71.3 °F /  21.8 °C 30.06in /  1017.8hPa SSE 4.0mph /  6.4km/h 8.0mph /  12.9km/h 62% 0.00in /  0mm
14:55 86.6 °F /  30.3 °C 72.5 °F /  22.5 °C 30.06in /  1017.8hPa SSE 7.0mph /  11.3km/h 8.0mph /  12.9km/h 63% 0.00in /  0mm
15:00 86.9 °F /  30.5 °C 73.3 °F /  22.9 °C 30.06in /  1017.8hPa SSE 10.0mph /  16.1km/h 10.0mph /  16.1km/h 64% 0.00in /  0mm
15:05 87.2 °F /  30.7 °C 73.1 °F /  22.8 °C 30.06in /  1017.8hPa East 1.0mph /  1.6km/h 6.0mph /  9.7km/h 63% 0.00in /  0mm
15:10 87.5 °F /  30.8 °C 72.9 °F /  22.7 °C 30.06in /  1017.8hPa SSE 3.0mph /  4.8km/h 9.0mph /  14.5km/h 62% 0.00in /  0mm
15:15 87.9 °F /  31.1 °C 71.8 °F /  22.1 °C 30.05in /  1017.5hPa SSW 2.0mph /  3.2km/h 7.0mph /  11.3km/h 59% 0.00in /  0mm
15:20 87.8 °F /  31 °C 71.2 °F /  21.8 °C 30.05in /  1017.5hPa SSW 6.0mph /  9.7km/h 9.0mph /  14.5km/h 58% 0.00in /  0mm
15:25 87.9 °F /  31.1 °C 71.3 °F /  21.8 °C 30.05in /  1017.5hPa SE 3.0mph /  4.8km/h 8.0mph /  12.9km/h 58% 0.00in /  0mm
15:30 88.3 °F /  31.3 °C 71.2 °F /  21.8 °C 30.05in /  1017.5hPa SSW 4.0mph /  6.4km/h 7.0mph /  11.3km/h 57% 0.00in /  0mm
15:35 87.9 °F /  31.1 °C 71.3 °F /  21.8 °C 30.05in /  1017.5hPa South 6.0mph /  9.7km/h 8.0mph /  12.9km/h 58% 0.00in /  0mm
15:40 87.6 °F /  30.9 °C 71.5 °F /  21.9 °C 30.05in /  1017.5hPa ESE 2.0mph /  3.2km/h 7.0mph /  11.3km/h 59% 0.00in /  0mm
15:45 87.1 °F /  30.6 °C 71.5 °F /  21.9 °C 30.04in /  1017.2hPa SE 3.0mph /  4.8km/h 8.0mph /  12.9km/h 60% 0.00in /  0mm
15:50 87.2 °F /  30.7 °C 71.6 °F /  22 °C 30.04in /  1017.2hPa SW 3.0mph /  4.8km/h 9.0mph /  14.5km/h 60% 0.00in /  0mm
15:55 87.4 °F /  30.8 °C 72.3 °F /  22.4 °C 30.04in /  1017.2hPa SE 4.0mph /  6.4km/h 10.0mph /  16.1km/h 61% 0.00in /  0mm
16:00 87.2 °F /  30.7 °C 71.6 °F /  22 °C 30.04in /  1017.2hPa SE 7.0mph /  11.3km/h 10.0mph /  16.1km/h 60% 0.00in /  0mm
16:06 87.3 °F /  30.7 °C 71.7 °F /  22.1 °C 30.04in /  1017.2hPa SE 7.0mph /  11.3km/h 8.0mph /  12.9km/h 60% 0.00in /  0mm
16:11 87.2 °F /  30.7 °C 70.6 °F /  21.4 °C 30.03in /  1016.8hPa WSW 5.0mph /  8km/h 9.0mph /  14.5km/h 58% 0.00in /  0mm
16:16 87.1 °F /  30.6 °C 72.5 °F /  22.5 °C 30.03in /  1016.8hPa SW 4.0mph /  6.4km/h 5.0mph /  8km/h 62% 0.00in /  0mm
16:21 87.6 °F /  30.9 °C 71.0 °F /  21.7 °C 30.03in /  1016.8hPa ESE 3.0mph /  4.8km/h 5.0mph /  8km/h 58% 0.00in /  0mm
16:26 88.1 °F /  31.2 °C 71.0 °F /  21.7 °C 30.03in /  1016.8hPa SSW 6.0mph /  9.7km/h 14.0mph /  22.5km/h 57% 0.00in /  0mm
16:31 88.5 °F /  31.4 °C 70.8 °F /  21.6 °C 30.02in /  1016.5hPa SSE 5.0mph /  8km/h 9.0mph /  14.5km/h 56% 0.00in /  0mm
16:36 88.5 °F /  31.4 °C 70.8 °F /  21.6 °C 30.02in /  1016.5hPa SSE 9.0mph /  14.5km/h 10.0mph /  16.1km/h 56% 0.00in /  0mm
16:41 88.7 °F /  31.5 °C 71.0 °F /  21.7 °C 30.02in /  1016.5hPa South 7.0mph /  11.3km/h 7.0mph /  11.3km/h 56% 0.00in /  0mm
16:46 88.8 °F /  31.6 °C 71.6 °F /  22 °C 30.02in /  1016.5hPa SW 1.0mph /  1.6km/h 7.0mph /  11.3km/h 57% 0.00in /  0mm
16:51 88.8 °F /  31.6 °C 71.1 °F /  21.7 °C 30.02in /  1016.5hPa SSE 4.0mph /  6.4km/h 10.0mph /  16.1km/h 56% 0.00in /  0mm
16:56 88.8 °F /  31.6 °C 71.1 °F /  21.7 °C 30.02in /  1016.5hPa WSW 4.0mph /  6.4km/h 7.0mph /  11.3km/h 56% 0.00in /  0mm
17:01 88.9 °F /  31.6 °C 70.7 °F /  21.5 °C 30.02in /  1016.5hPa SW 5.0mph /  8km/h 6.0mph /  9.7km/h 55% 0.00in /  0mm
17:06 89.0 °F /  31.7 °C 70.8 °F /  21.6 °C 30.02in /  1016.5hPa SSE 7.0mph /  11.3km/h 7.0mph /  11.3km/h 55% 0.00in /  0mm
17:11 88.4 °F /  31.3 °C 71.8 °F /  22.1 °C 30.02in /  1016.5hPa SE 6.0mph /  9.7km/h 6.0mph /  9.7km/h 58% 0.00in /  0mm
17:16 87.8 °F /  31 °C 71.2 °F /  21.8 °C 30.02in /  1016.5hPa SSE 6.0mph /  9.7km/h 6.0mph /  9.7km/h 58% 0.00in /  0mm
17:21 88.1 °F /  31.2 °C 70.4 °F /  21.3 °C 30.02in /  1016.5hPa SSE 3.0mph /  4.8km/h 7.0mph /  11.3km/h 56% 0.00in /  0mm
17:26 88.2 °F /  31.2 °C 71.1 °F /  21.7 °C 30.02in /  1016.5hPa SW 2.0mph /  3.2km/h 5.0mph /  8km/h 57% 0.00in /  0mm
17:31 88.4 °F /  31.3 °C 71.8 °F /  22.1 °C 30.02in /  1016.5hPa SSE 7.0mph /  11.3km/h 11.0mph /  17.7km/h 58% 0.00in /  0mm
17:36 88.5 °F /  31.4 °C 71.3 °F /  21.8 °C 30.02in /  1016.5hPa ESE 3.0mph /  4.8km/h 8.0mph /  12.9km/h 57% 0.00in /  0mm
17:41 88.9 °F /  31.6 °C 70.7 °F /  21.5 °C 30.02in /  1016.5hPa SSE 5.0mph /  8km/h 8.0mph /  12.9km/h 55% 0.00in /  0mm
17:46 89.3 °F /  31.8 °C 71.6 °F /  22 °C 30.02in /  1016.5hPa SSE 4.0mph /  6.4km/h 9.0mph /  14.5km/h 56% 0.00in /  0mm
17:51 89.5 °F /  31.9 °C 71.7 °F /  22.1 °C 30.01in /  1016.1hPa SSE 8.0mph /  12.9km/h 10.0mph /  16.1km/h 56% 0.00in /  0mm
17:56 89.4 °F /  31.9 °C 73.2 °F /  22.9 °C 30.01in /  1016.1hPa SE 7.0mph /  11.3km/h 8.0mph /  12.9km/h 59% 0.00in /  0mm
18:01 89.3 °F /  31.8 °C 72.1 °F /  22.3 °C 30.01in /  1016.1hPa SE 4.0mph /  6.4km/h 8.0mph /  12.9km/h 57% 0.00in /  0mm
18:06 89.3 °F /  31.8 °C 72.1 °F /  22.3 °C 30.01in /  1016.1hPa SSE 4.0mph /  6.4km/h 6.0mph /  9.7km/h 57% 0.00in /  0mm
18:11 89.5 °F /  31.9 °C 70.1 °F /  21.2 °C 30.01in /  1016.1hPa SW 7.0mph /  11.3km/h 7.0mph /  11.3km/h 53% 0.00in /  0mm
18:16 89.7 °F /  32.1 °C 70.9 °F /  21.6 °C 30.01in /  1016.1hPa SW 6.0mph /  9.7km/h 7.0mph /  11.3km/h 54% 0.00in /  0mm
18:21 89.2 °F /  31.8 °C 70.4 °F /  21.3 °C 30.01in /  1016.1hPa SW 4.0mph /  6.4km/h 7.0mph /  11.3km/h 54% 0.00in /  0mm
18:26 89.2 °F /  31.8 °C 72.0 °F /  22.2 °C 30.00in /  1015.8hPa SW 3.0mph /  4.8km/h 5.0mph /  8km/h 57% 0.00in /  0mm
18:31 89.3 °F /  31.8 °C 70.5 °F /  21.4 °C 30.00in /  1015.8hPa SW 2.0mph /  3.2km/h 4.0mph /  6.4km/h 54% 0.00in /  0mm
18:36 89.5 °F /  31.9 °C 70.1 °F /  21.2 °C 30.00in /  1015.8hPa SSW 2.0mph /  3.2km/h 8.0mph /  12.9km/h 53% 0.00in /  0mm
18:41 89.3 °F /  31.8 °C 71.6 °F /  22 °C 30.00in /  1015.8hPa SE 3.0mph /  4.8km/h 9.0mph /  14.5km/h 56% 0.00in /  0mm
18:46 89.5 °F /  31.9 °C 70.7 °F /  21.5 °C 30.00in /  1015.8hPa SSE 2.0mph /  3.2km/h 4.0mph /  6.4km/h 54% 0.00in /  0mm
18:51 89.7 °F /  32.1 °C 69.8 °F /  21 °C 30.00in /  1015.8hPa SSE 7.0mph /  11.3km/h 7.0mph /  11.3km/h 52% 0.00in /  0mm
18:56 89.7 °F /  32.1 °C 70.3 °F /  21.3 °C 30.00in /  1015.8hPa SSW 2.0mph /  3.2km/h 5.0mph /  8km/h 53% 0.00in /  0mm
19:01 89.6 °F /  32 °C 69.7 °F /  20.9 °C 30.00in /  1015.8hPa SSW 3.0mph /  4.8km/h 6.0mph /  9.7km/h 52% 0.00in /  0mm
19:06 89.6 °F /  32 °C 70.2 °F /  21.2 °C 30.00in /  1015.8hPa SW 4.0mph /  6.4km/h 4.0mph /  6.4km/h 53% 0.00in /  0mm
19:11 89.7 °F /  32.1 °C 71.4 °F /  21.9 °C 30.00in /  1015.8hPa SSW 3.0mph /  4.8km/h 5.0mph /  8km/h 55% 0.00in /  0mm
19:16 89.9 °F /  32.2 °C 72.1 °F /  22.3 °C 29.99in /  1015.5hPa SW 3.0mph /  4.8km/h 3.0mph /  4.8km/h 56% 0.00in /  0mm
19:21 90.0 °F /  32.2 °C 70.0 °F /  21.1 °C 30.00in /  1015.8hPa SSW 1.0mph /  1.6km/h 3.0mph /  4.8km/h 52% 0.00in /  0mm
19:26 89.7 °F /  32.1 °C 70.3 °F /  21.3 °C 29.99in /  1015.5hPa SW 5.0mph /  8km/h 5.0mph /  8km/h 53% 0.00in /  0mm
19:31 89.3 °F /  31.8 °C 70.5 °F /  21.4 °C 29.99in /  1015.5hPa SSE 2.0mph /  3.2km/h 3.0mph /  4.8km/h 54% 0.00in /  0mm
19:36 89.5 °F /  31.9 °C 71.2 °F /  21.8 °C 30.00in /  1015.8hPa Calm   3.0mph /  4.8km/h 55% 0.00in /  0mm
19:41 89.5 °F /  31.9 °C 70.7 °F /  21.5 °C 30.00in /  1015.8hPa South 4.0mph /  6.4km/h 5.0mph /  8km/h 54% 0.00in /  0mm
19:46 89.3 °F /  31.8 °C 71.0 °F /  21.7 °C 30.00in /  1015.8hPa South 1.0mph /  1.6km/h 4.0mph /  6.4km/h 55% 0.00in /  0mm
19:51 89.4 °F /  31.9 °C 71.1 °F /  21.7 °C 30.00in /  1015.8hPa South 3.0mph /  4.8km/h 3.0mph /  4.8km/h 55% 0.00in /  0mm
19:56 89.3 °F /  31.8 °C 70.5 °F /  21.4 °C 30.00in /  1015.8hPa SE 2.0mph /  3.2km/h 3.0mph /  4.8km/h 54% 0.00in /  0mm
20:01 89.5 °F /  31.9 °C 71.2 °F /  21.8 °C 30.00in /  1015.8hPa SSW 1.0mph /  1.6km/h 2.0mph /  3.2km/h 55% 0.00in /  0mm
20:06 89.3 °F /  31.8 °C 71.6 °F /  22 °C 30.00in /  1015.8hPa WSW 1.0mph /  1.6km/h 2.0mph /  3.2km/h 56% 0.00in /  0mm
20:12 89.4 °F /  31.9 °C 71.1 °F /  21.7 °C 30.00in /  1015.8hPa Calm     55% 0.00in /  0mm
20:17 89.8 °F /  32.1 °C 70.9 °F /  21.6 °C 30.00in /  1015.8hPa SW 1.0mph /  1.6km/h 1.0mph /  1.6km/h 54% 0.00in /  0mm
20:22 89.5 °F /  31.9 °C 71.2 °F /  21.8 °C 30.00in /  1015.8hPa Calm   1.0mph /  1.6km/h 55% 0.00in /  0mm
20:27 89.9 °F /  32.2 °C 72.6 °F /  22.6 °C 30.01in /  1016.1hPa Calm     57% 0.00in /  0mm
20:32 89.6 °F /  32 °C 72.4 °F /  22.4 °C 30.01in /  1016.1hPa Calm     57% 0.00in /  0mm
20:37 88.7 °F /  31.5 °C 72.5 °F /  22.5 °C 30.01in /  1016.1hPa Calm     59% 0.00in /  0mm
20:42 87.4 °F /  30.8 °C 72.8 °F /  22.7 °C 30.01in /  1016.1hPa Calm     62% 0.00in /  0mm
20:47 85.9 °F /  29.9 °C 72.3 °F /  22.4 °C 30.01in /  1016.1hPa Calm     64% 0.00in /  0mm
20:52 84.7 °F /  29.3 °C 72.5 °F /  22.5 °C 30.01in /  1016.1hPa Calm     67% 0.00in /  0mm
20:57 83.9 °F /  28.8 °C 72.7 °F /  22.6 °C 30.01in /  1016.1hPa Calm   1.0mph /  1.6km/h 69% 0.00in /  0mm
21:02 83.2 °F /  28.4 °C 72.4 °F /  22.4 °C 30.02in /  1016.5hPa Calm     70% 0.00in /  0mm
21:07 82.6 °F /  28.1 °C 71.8 °F /  22.1 °C 30.02in /  1016.5hPa Calm     70% 0.00in /  0mm
21:12 82.3 °F /  27.9 °C 72.0 °F /  22.2 °C 30.02in /  1016.5hPa Calm     71% 0.00in /  0mm
21:17 82.0 °F /  27.8 °C 72.5 °F /  22.5 °C 30.02in /  1016.5hPa Calm   1.0mph /  1.6km/h 73% 0.00in /  0mm
21:22 81.5 °F /  27.5 °C 72.4 °F /  22.4 °C 30.03in /  1016.8hPa Calm     74% 0.00in /  0mm
21:27 81.0 °F /  27.2 °C 71.9 °F /  22.2 °C 30.03in /  1016.8hPa Calm     74% 0.00in /  0mm
21:32 80.2 °F /  26.8 °C 71.6 °F /  22 °C 30.03in /  1016.8hPa Calm     75% 0.00in /  0mm
21:37 79.7 °F /  26.5 °C 71.9 °F /  22.2 °C 30.03in /  1016.8hPa East 1.0mph /  1.6km/h 1.0mph /  1.6km/h 77% 0.00in /  0mm
21:42 79.8 °F /  26.6 °C 71.9 °F /  22.2 °C 30.03in /  1016.8hPa Calm   1.0mph /  1.6km/h 77% 0.00in /  0mm
21:47 80.0 °F /  26.7 °C 71.8 °F /  22.1 °C 30.03in /  1016.8hPa Calm     76% 0.00in /  0mm
21:52 79.6 °F /  26.4 °C 71.8 °F /  22.1 °C 30.03in /  1016.8hPa East 1.0mph /  1.6km/h 1.0mph /  1.6km/h 77% 0.00in /  0mm
21:57 79.2 °F /  26.2 °C 71.4 °F /  21.9 °C 30.03in /  1016.8hPa Calm   1.0mph /  1.6km/h 77% 0.00in /  0mm
22:02 78.9 °F /  26.1 °C 71.5 °F /  21.9 °C 30.03in /  1016.8hPa Calm     78% 0.00in /  0mm
22:07 78.8 °F /  26 °C 71.0 °F /  21.7 °C 30.03in /  1016.8hPa Calm   1.0mph /  1.6km/h 77% 0.00in /  0mm
22:12 78.7 °F /  25.9 °C 72.0 °F /  22.2 °C 30.03in /  1016.8hPa ENE 1.0mph /  1.6km/h 1.0mph /  1.6km/h 80% 0.00in /  0mm
22:17 78.0 °F /  25.6 °C 72.1 °F /  22.3 °C 30.03in /  1016.8hPa Calm   1.0mph /  1.6km/h 82% 0.00in /  0mm
22:22 77.6 °F /  25.3 °C 71.3 °F /  21.8 °C 30.03in /  1016.8hPa Calm   1.0mph /  1.6km/h 81% 0.00in /  0mm
22:27 77.2 °F /  25.1 °C 72.0 °F /  22.2 °C 30.03in /  1016.8hPa Calm     84% 0.00in /  0mm
22:32 77.0 °F /  25 °C 72.2 °F /  22.3 °C 30.03in /  1016.8hPa Calm     85% 0.00in /  0mm
22:37 76.8 °F /  24.9 °C 72.3 °F /  22.4 °C 30.03in /  1016.8hPa ENE 1.0mph /  1.6km/h 1.0mph /  1.6km/h 86% 0.00in /  0mm
22:42 76.9 °F /  24.9 °C 72.1 °F /  22.3 °C 30.03in /  1016.8hPa ENE 1.0mph /  1.6km/h 2.0mph /  3.2km/h 85% 0.00in /  0mm
22:47 76.7 °F /  24.8 °C 71.5 °F /  21.9 °C 30.04in /  1017.2hPa Calm     84% 0.00in /  0mm
22:52 76.6 °F /  24.8 °C 71.8 °F /  22.1 °C 30.04in /  1017.2hPa ENE 1.0mph /  1.6km/h 2.0mph /  3.2km/h 85% 0.00in /  0mm
22:57 76.7 °F /  24.8 °C 71.9 °F /  22.2 °C 30.03in /  1016.8hPa Calm   1.0mph /  1.6km/h 85% 0.00in /  0mm
23:02 76.4 °F /  24.7 °C 71.6 °F /  22 °C 30.04in /  1017.2hPa Calm     85% 0.00in /  0mm
23:07 76.1 °F /  24.5 °C 71.3 °F /  21.8 °C 30.04in /  1017.2hPa Calm     85% 0.00in /  0mm
23:12 75.8 °F /  24.3 °C 71.7 °F /  22.1 °C 30.04in /  1017.2hPa Calm     87% 0.00in /  0mm
23:17 75.6 °F /  24.2 °C 71.8 °F /  22.1 °C 30.04in /  1017.2hPa NE 1.0mph /  1.6km/h 1.0mph /  1.6km/h 88% 0.00in /  0mm
23:22 75.4 °F /  24.1 °C 71.9 °F /  22.2 °C 30.04in /  1017.2hPa NNW 1.0mph /  1.6km/h 2.0mph /  3.2km/h 89% 0.00in /  0mm
23:27 75.1 °F /  23.9 °C 72.0 °F /  22.2 °C 30.04in /  1017.2hPa Calm   1.0mph /  1.6km/h 90% 0.00in /  0mm
23:32 74.8 °F /  23.8 °C 71.7 °F /  22.1 °C 30.04in /  1017.2hPa Calm   1.0mph /  1.6km/h 90% 0.00in /  0mm
23:37 74.7 °F /  23.7 °C 71.6 °F /  22 °C 30.04in /  1017.2hPa Calm     90% 0.00in /  0mm
23:42 74.6 °F /  23.7 °C 71.8 °F /  22.1 °C 30.04in /  1017.2hPa Calm     91% 0.00in /  0mm
23:47 74.6 °F /  23.7 °C 71.8 °F /  22.1 °C 30.04in /  1017.2hPa Calm     91% 0.00in /  0mm
23:52 74.4 °F /  23.6 °C 71.6 °F /  22 °C 30.04in /  1017.2hPa Calm     91% 0.00in /  0mm
23:57 74.4 °F /  23.6 °C 71.6 °F /  22 °C 30.03in /  1016.8hPa Calm   1.0mph /  1.6km/h 91% 0.00in /  0mm
Compliments of Weather Underground